Ayvalik, Turkey

7:10 PM EEST on March 31, 2015 (GMT +0300)
Pligoni / Mitilini / Lesvos - SV8DTD | | Change Station
CLOSE
Current Station
Personal Weather Station
Location: Ελλάδα,
Elevation: 131 ft
Nearby Weather Stations

Elev 131 ft 39.07 °N, 26.58 °E | Updated 4 seconds ago

Scattered Clouds
Scattered Clouds
58.1 °F
Feels Like 58.1 °F
N
1.0
Wind Variable Wind from NW
Gusts 4.0 mph

Today
High -- | Low -- °F
--% Chance of Precip.
Yesterday
High -- | Low -- °F
Precip. -- in
7:00 AM 7:35 PM
Waxing Gibbous, 87% visible
Pressure 29.83 in
Visibility 6.2 miles
Clouds Scattered Clouds 2500 ft
Scattered Clouds 9000 ft
Dew Point 48 °F
Humidity 69%
Rainfall 0.17 in
Snow Depth Not available.
UV 0.0 out of 12
Pollen Not available.
Air Quality Not available.
Flu Activity Not available.
METAR LGMT 311550Z 00000KT 9999 SCT025 SCT090 15/10 Q1010

More Conditions Fewer Conditions

Pressure 29.83 in
Visibility 6.2 miles
Clouds Scattered Clouds 2500 ft
Scattered Clouds 9000 ft
Dew Point 48 °F
Humidity 69%
Rainfall 0.17 in
Snow Depth Not available.
UV 0.0 out of 12
Pollen Not available.
Air Quality Not available.
Flu Activity Not available.
METAR LGMT 311550Z 00000KT 9999 SCT025 SCT090 15/10 Q1010

More Conditions Fewer Conditions

10-Day Weather Forecast

Almanac

Astronomy

Mar. 31, 2015 Rise Set
Actual Time
Civil Twilight
Nautical Twilight
Astronomical Twilight
Moon
Length of Visible Light
Length of Day
Tomorrow will be .
, % of the Moon is Illuminated

Today's Extremes

Country Highs Country Lows

Community

WunderPhotos

Upload Photos

1,809,785 photos uploaded!

WunderBlogs® & News

Nearby

Air Quality

  Air Quality AQ Index Pollutant
Not available.

Snow Depth

Station Depth Elevation

Earthquake Activity

City Distance Mag. Time & Date
Minimum magnitude displayed is 2.5.

Coastal Water Temperatures

Place Temperature

Stations

Nearby Weather Stations

Station Location Temp. Windchill Dew Point Humidity Wind Precip. Elev Updated Type